Time;durP1;ratioP1;P1;durP2;ratioP2;P2;SDS_P1;SDS_P2;PMS_P1;PMS_P2;Temp;Humidity;BMP_temperature;BMP_pressure;BME280_temperature;BME280_humidity;BME280_pressure;Samples;Min_cycle;Max_cycle;Signal;HPM_P1;HPM_P2
2021/04/15 00:02:04;;;;;;;4.25;1.77;;;;;;;;;;5071485;28;20138;-72
2021/04/15 00:05:10;;;;;;;3.00;1.73;;;;;;;;;;5071501;28;20211;-73
2021/04/15 00:08:16;;;;;;;4.55;2.05;;;;;;;;;;5071263;28;20510;-72
2021/04/15 00:11:22;;;;;;;5.20;1.80;;;;;;;;;;5071274;28;20044;-73
2021/04/15 00:14:26;;;;;;;3.42;1.90;;;;;;;;;;5071618;28;20036;-73
2021/04/15 00:17:30;;;;;;;4.65;2.30;;;;;;;;;;5071380;28;20041;-73
2021/04/15 00:20:34;;;;;;;2.10;1.67;;;;;;;;;;5071568;28;20041;-73
2021/04/15 00:23:39;;;;;;;1.85;1.60;;;;;;;;;;5071329;28;20029;-73
2021/04/15 00:26:43;;;;;;;2.17;1.73;;;;;;;;;;5070906;28;20040;-72
2021/04/15 00:29:48;;;;;;;3.17;1.60;;;;;;;;;;5071507;28;20037;-73
2021/04/15 00:32:52;;;;;;;6.03;2.00;;;;;;;;;;5071252;28;20041;-74
2021/04/15 00:35:56;;;;;;;2.22;1.42;;;;;;;;;;5071384;28;20037;-73
2021/04/15 00:39:13;;;;;;;3.97;1.80;;;;;;;;;;5071267;28;20152;-73
2021/04/15 00:42:17;;;;;;;5.18;2.00;;;;;;;;;;5070885;28;20056;-73
2021/04/15 00:45:28;;;;;;;2.10;1.50;;;;;;;;;;5081949;28;20346;-73
2021/04/15 00:48:36;;;;;;;3.67;1.52;;;;;;;;;;5071031;28;20044;-73
2021/04/15 00:51:43;;;;;;;2.45;1.60;;;;;;;;;;5070904;28;20044;-73
2021/04/15 00:54:49;;;;;;;3.30;1.40;;;;;;;;;;5071001;28;20397;-73
2021/04/15 00:57:53;;;;;;;1.90;1.40;;;;;;;;;;5071042;28;20044;-73
2021/04/15 01:00:57;;;;;;;2.70;1.67;;;;;;;;;;5069958;28;20040;-72
2021/04/15 01:04:02;;;;;;;4.15;1.60;;;;;;;;;;5070736;28;20045;-73
2021/04/15 01:07:06;;;;;;;8.57;1.77;;;;;;;;;;5070648;28;20044;-73
2021/04/15 01:10:11;;;;;;;5.95;1.40;;;;;;;;;;5070644;28;20049;-73
2021/04/15 01:13:21;;;;;;;4.78;1.52;;;;;;;;;;5071042;28;20041;-73
2021/04/15 01:16:35;;;;;;;2.35;1.48;;;;;;;;;;5070845;28;20041;-73
2021/04/15 01:19:39;;;;;;;5.93;1.67;;;;;;;;;;5071002;28;20045;-73
2021/04/15 01:22:47;;;;;;;3.58;1.60;;;;;;;;;;5070102;28;20316;-72
2021/04/15 01:26:00;;;;;;;2.28;1.40;;;;;;;;;;5070709;28;20487;-73
2021/04/15 01:29:08;;;;;;;2.47;1.27;;;;;;;;;;5070620;28;20040;-73
2021/04/15 01:32:15;;;;;;;2.28;1.52;;;;;;;;;;5070280;28;20381;-73
2021/04/15 01:35:28;;;;;;;5.03;1.60;;;;;;;;;;5070478;28;20063;-72
2021/04/15 01:38:32;;;;;;;2.72;1.60;;;;;;;;;;5071325;28;20048;-73
2021/04/15 01:41:39;;;;;;;3.15;1.60;;;;;;;;;;5074375;28;20036;-73
2021/04/15 01:44:43;;;;;;;5.95;1.88;;;;;;;;;;5074302;28;20384;-73
2021/04/15 01:47:53;;;;;;;3.53;1.30;;;;;;;;;;5074117;28;20036;-73
2021/04/15 01:51:00;;;;;;;1.83;1.40;;;;;;;;;;5073043;28;20044;-73
2021/04/15 01:54:07;;;;;;;5.20;1.30;;;;;;;;;;5074089;28;20369;-74
2021/04/15 01:57:22;;;;;;;2.92;1.50;;;;;;;;;;5073878;28;20044;-72
2021/04/15 02:00:28;;;;;;;2.00;1.20;;;;;;;;;;5073578;28;20041;-71
2021/04/15 02:03:35;;;;;;;2.30;1.33;;;;;;;;;;5073505;28;20029;-73
2021/04/15 02:06:41;;;;;;;1.48;1.15;;;;;;;;;;5073629;28;20041;-72
2021/04/15 02:09:47;;;;;;;1.85;1.27;;;;;;;;;;5073807;28;20492;-73
2021/04/15 02:12:53;;;;;;;2.05;1.70;;;;;;;;;;5073680;28;20045;-72
2021/04/15 02:16:08;;;;;;;3.30;1.30;;;;;;;;;;5073571;28;20480;-73
2021/04/15 02:19:20;;;;;;;3.15;1.27;;;;;;;;;;5073305;28;20040;-73
2021/04/15 02:22:25;;;;;;;6.10;1.50;;;;;;;;;;5073305;28;20045;-73
2021/04/15 02:25:38;;;;;;;4.65;1.25;;;;;;;;;;5073480;28;20048;-73
2021/04/15 02:28:46;;;;;;;4.70;1.73;;;;;;;;;;5073030;28;20369;-74
2021/04/15 02:31:53;;;;;;;2.22;1.42;;;;;;;;;;5072777;28;20040;-73
2021/04/15 02:35:05;;;;;;;4.22;1.27;;;;;;;;;;5073374;28;20040;-74
2021/04/15 02:38:09;;;;;;;4.80;1.27;;;;;;;;;;5072108;28;20036;-73
2021/04/15 02:41:16;;;;;;;3.08;1.40;;;;;;;;;;5073152;28;20040;-74
2021/04/15 02:44:26;;;;;;;2.75;1.60;;;;;;;;;;5072778;28;20373;-73
2021/04/15 02:47:35;;;;;;;3.03;1.55;;;;;;;;;;5072736;28;20033;-73
2021/04/15 02:50:40;;;;;;;3.92;1.52;;;;;;;;;;5072756;28;20044;-73
2021/04/15 02:53:54;;;;;;;3.53;1.80;;;;;;;;;;5072929;28;20040;-73
2021/04/15 02:57:28;;;;;;;3.03;1.80;;;;;;;;;;5072017;28;20045;-73
2021/04/15 03:00:42;;;;;;;3.83;2.00;;;;;;;;;;5072785;28;20032;-73
2021/04/15 03:03:49;;;;;;;6.00;2.05;;;;;;;;;;5072559;28;20044;-74
2021/04/15 03:06:54;;;;;;;10.00;2.22;;;;;;;;;;5072453;28;20052;-73
2021/04/15 03:10:00;;;;;;;3.78;2.08;;;;;;;;;;5072708;28;20488;-73
2021/04/15 03:13:10;;;;;;;2.53;1.60;;;;;;;;;;5083059;28;20048;-73
2021/04/15 03:16:16;;;;;;;2.80;1.75;;;;;;;;;;5071325;28;20036;-74
2021/04/15 03:19:29;;;;;;;1.92;1.55;;;;;;;;;;5071418;28;20040;-73
2021/04/15 03:22:37;;;;;;;2.40;1.58;;;;;;;;;;5072262;28;20044;-73
2021/04/15 03:25:41;;;;;;;2.63;1.52;;;;;;;;;;5071905;28;20040;-73
2021/04/15 03:28:50;;;;;;;3.08;1.75;;;;;;;;;;5071939;28;20028;-73
2021/04/15 03:32:13;;;;;;;2.13;1.23;;;;;;;;;;5071701;28;20040;-73
2021/04/15 03:35:24;;;;;;;3.63;1.40;;;;;;;;;;5072241;28;20045;-73
2021/04/15 03:38:33;;;;;;;2.03;1.20;;;;;;;;;;5071574;28;20381;-73
2021/04/15 03:41:37;;;;;;;3.63;1.48;;;;;;;;;;5071779;28;20037;-74
2021/04/15 03:44:46;;;;;;;3.67;1.48;;;;;;;;;;5071704;28;20115;-73
2021/04/15 03:47:57;;;;;;;2.70;1.35;;;;;;;;;;5070858;28;20036;-73
2021/04/15 03:51:04;;;;;;;4.32;1.33;;;;;;;;;;5071371;28;20032;-75
2021/04/15 03:54:11;;;;;;;4.00;1.65;;;;;;;;;;5071523;28;20032;-74
2021/04/15 03:57:18;;;;;;;3.67;1.55;;;;;;;;;;5071674;28;20036;-72
2021/04/15 04:00:26;;;;;;;3.25;1.33;;;;;;;;;;5071688;28;20036;-74
2021/04/15 04:03:32;;;;;;;4.68;1.52;;;;;;;;;;5071024;28;20040;-73
2021/04/15 04:06:42;;;;;;;2.70;1.20;;;;;;;;;;5071221;28;20456;-73
2021/04/15 04:09:56;;;;;;;3.10;1.40;;;;;;;;;;5082070;28;20349;-73
2021/04/15 04:13:15;;;;;;;4.25;1.75;;;;;;;;;;5070419;28;20287;-73
2021/04/15 04:16:22;;;;;;;2.72;1.55;;;;;;;;;;5070308;28;20036;-72
2021/04/15 04:19:34;;;;;;;7.05;2.05;;;;;;;;;;5071332;28;20040;-73
2021/04/15 04:22:39;;;;;;;4.53;1.50;;;;;;;;;;5070553;28;20037;-74
2021/04/15 04:25:48;;;;;;;2.10;1.35;;;;;;;;;;5071123;28;20044;-74
2021/04/15 04:29:11;;;;;;;4.05;1.42;;;;;;;;;;5071680;28;20036;-73
2021/04/15 04:32:17;;;;;;;2.20;1.50;;;;;;;;;;5071069;28;20045;-75
2021/04/15 04:35:23;;;;;;;1.88;1.40;;;;;;;;;;5071846;28;20453;-73
2021/04/15 04:38:27;;;;;;;2.20;1.40;;;;;;;;;;5071319;28;20040;-74
2021/04/15 04:41:50;;;;;;;5.30;1.77;;;;;;;;;;5071274;28;20480;-74
2021/04/15 04:44:57;;;;;;;3.55;1.77;;;;;;;;;;5071144;28;20037;-73
2021/04/15 04:48:04;;;;;;;7.10;1.67;;;;;;;;;;5070896;28;20032;-73
2021/04/15 04:51:16;;;;;;;6.80;1.92;;;;;;;;;;5071132;28;20036;-73
2021/04/15 04:54:22;;;;;;;5.18;1.90;;;;;;;;;;5070888;28;20044;-73
2021/04/15 04:57:30;;;;;;;4.57;1.63;;;;;;;;;;5071162;28;20036;-73
2021/04/15 05:00:36;;;;;;;7.93;2.05;;;;;;;;;;5071111;28;20041;-74
2021/04/15 05:03:40;;;;;;;4.15;1.90;;;;;;;;;;5070061;28;20036;-72
2021/04/15 05:06:45;;;;;;;5.65;2.03;;;;;;;;;;5070946;28;20064;-75
2021/04/15 05:09:51;;;;;;;5.43;2.15;;;;;;;;;;5070868;28;20044;-73
2021/04/15 05:13:11;;;;;;;3.35;1.85;;;;;;;;;;5071617;28;20052;-74
2021/04/15 05:16:15;;;;;;;4.78;2.70;;;;;;;;;;5073889;28;20475;-72
2021/04/15 05:19:20;;;;;;;5.82;3.00;;;;;;;;;;5074561;28;20048;-74
2021/04/15 05:22:26;;;;;;;6.97;2.40;;;;;;;;;;5073320;28;20045;-74
2021/04/15 05:25:42;;;;;;;3.22;2.50;;;;;;;;;;5074298;28;20033;-75
2021/04/15 05:28:57;;;;;;;11.65;2.53;;;;;;;;;;5074375;28;20040;-75
2021/04/15 05:32:01;;;;;;;19.42;12.02;;;;;;;;;;5074010;28;20409;-69
2021/04/15 05:35:06;;;;;;;9.13;3.20;;;;;;;;;;5074066;28;20042;-69
2021/04/15 05:38:11;;;;;;;6.07;3.33;;;;;;;;;;5074183;28;20044;-69
2021/04/15 05:41:25;;;;;;;4.95;2.75;;;;;;;;;;5073630;28;20041;-69
2021/04/15 05:44:44;;;;;;;7.05;1.90;;;;;;;;;;5074284;28;20041;-69
2021/04/15 05:47:55;;;;;;;4.15;2.10;;;;;;;;;;5073342;28;20033;-69
2021/04/15 05:51:03;;;;;;;7.90;2.13;;;;;;;;;;5073762;28;20040;-69
2021/04/15 05:54:10;;;;;;;5.88;1.95;;;;;;;;;;5072736;28;20029;-69
2021/04/15 05:57:17;;;;;;;5.63;2.22;;;;;;;;;;5073594;28;20479;-69
2021/04/15 06:00:29;;;;;;;6.03;1.90;;;;;;;;;;5072075;28;20037;-68
2021/04/15 06:03:33;;;;;;;5.32;1.77;;;;;;;;;;5072680;28;20040;-70
2021/04/15 06:06:42;;;;;;;7.57;1.80;;;;;;;;;;5072769;28;20057;-70
2021/04/15 06:09:48;;;;;;;11.80;2.13;;;;;;;;;;5073767;28;20040;-70
2021/04/15 06:12:52;;;;;;;6.28;2.20;;;;;;;;;;5073065;28;20401;-70
2021/04/15 06:16:02;;;;;;;6.70;1.80;;;;;;;;;;5084487;28;20040;-69
2021/04/15 06:19:09;;;;;;;9.75;2.55;;;;;;;;;;5073701;28;20044;-70
2021/04/15 06:22:16;;;;;;;4.70;2.53;;;;;;;;;;5083974;28;20044;-70
2021/04/15 06:25:23;;;;;;;4.82;2.10;;;;;;;;;;5072647;28;20037;-69
2021/04/15 06:28:33;;;;;;;10.27;2.42;;;;;;;;;;5073239;28;20374;-70
2021/04/15 06:31:42;;;;;;;3.88;2.20;;;;;;;;;;5072883;28;20036;-69
2021/04/15 06:34:46;;;;;;;7.63;2.30;;;;;;;;;;5072042;28;20040;-70
2021/04/15 06:37:57;;;;;;;6.03;2.78;;;;;;;;;;5072832;28;20029;-69
2021/04/15 06:41:22;;;;;;;3.42;2.10;;;;;;;;;;5072447;28;20480;-69
2021/04/15 06:44:39;;;;;;;4.60;2.42;;;;;;;;;;5084015;28;20037;-70
2021/04/15 06:48:01;;;;;;;14.40;6.10;;;;;;;;;;5072530;28;20040;-69
2021/04/15 06:51:27;;;;;;;7.85;2.60;;;;;;;;;;5083024;28;20039;-70
2021/04/15 06:54:51;;;;;;;4.15;2.70;;;;;;;;;;5072999;28;20480;-71
2021/04/15 06:57:55;;;;;;;8.93;2.63;;;;;;;;;;5072755;28;20477;-69
2021/04/15 07:01:07;;;;;;;8.55;2.65;;;;;;;;;;5072079;28;20382;-70
2021/04/15 07:04:19;;;;;;;6.13;2.55;;;;;;;;;;5072414;28;20032;-69
2021/04/15 07:07:28;;;;;;;6.70;3.22;;;;;;;;;;5072132;28;20504;-70
2021/04/15 07:10:47;;;;;;;15.48;3.83;;;;;;;;;;5072219;28;20353;-69
2021/04/15 07:14:10;;;;;;;6.35;4.15;;;;;;;;;;5071168;28;20416;-70
2021/04/15 07:17:37;;;;;;;9.55;3.58;;;;;;;;;;5071367;28;20040;-71
2021/04/15 07:21:00;;;;;;;4.60;2.40;;;;;;;;;;5082957;28;20033;-70
2021/04/15 07:24:07;;;;;;;6.85;3.03;;;;;;;;;;5072260;28;20040;-69
2021/04/15 07:27:37;;;;;;;6.63;2.55;;;;;;;;;;5071870;28;20456;-71
2021/04/15 07:31:01;;;;;;;3.65;1.80;;;;;;;;;;5071809;28;20036;-69
2021/04/15 07:34:06;;;;;;;4.20;2.45;;;;;;;;;;5071708;28;20037;-70
2021/04/15 07:37:23;;;;;;;7.03;2.50;;;;;;;;;;5070881;28;20156;-70
2021/04/15 07:40:37;;;;;;;4.20;1.80;;;;;;;;;;5071667;28;20369;-69
2021/04/15 07:43:44;;;;;;;3.92;1.98;;;;;;;;;;5071732;28;20044;-70
2021/04/15 07:46:49;;;;;;;4.18;2.15;;;;;;;;;;5071680;28;20032;-70
2021/04/15 07:49:53;;;;;;;4.03;2.05;;;;;;;;;;5071488;28;20045;-73
2021/04/15 07:53:00;;;;;;;4.50;2.03;;;;;;;;;;5071465;28;20052;-70
2021/04/15 07:56:23;;;;;;;14.57;2.60;;;;;;;;;;5071182;28;20508;-73
2021/04/15 07:59:47;;;;;;;6.03;2.22;;;;;;;;;;5071432;28;20036;-73
2021/04/15 08:03:04;;;;;;;8.50;2.60;;;;;;;;;;5070734;28;20036;-72
2021/04/15 08:06:12;;;;;;;3.13;1.90;;;;;;;;;;5071131;28;20037;-72
2021/04/15 08:09:22;;;;;;;4.93;2.40;;;;;;;;;;5071291;28;20029;-72
2021/04/15 08:12:35;;;;;;;3.67;2.35;;;;;;;;;;5071158;28;20618;-74
2021/04/15 08:15:46;;;;;;;6.90;2.50;;;;;;;;;;5071704;28;20472;-73
2021/04/15 08:18:57;;;;;;;4.72;2.53;;;;;;;;;;5071879;28;20040;-72
2021/04/15 08:22:28;;;;;;;4.13;2.08;;;;;;;;;;5071714;28;20040;-72
2021/04/15 08:25:51;;;;;;;5.43;2.67;;;;;;;;;;5082033;28;20045;-72
2021/04/15 08:29:14;;;;;;;7.20;3.22;;;;;;;;;;5071037;28;20036;-72
2021/04/15 08:32:27;;;;;;;5.97;2.80;;;;;;;;;;5070534;28;20048;-72
2021/04/15 08:35:54;;;;;;;8.15;3.22;;;;;;;;;;5071286;28;20032;-73
2021/04/15 08:39:18;;;;;;;7.22;3.05;;;;;;;;;;5067066;28;20037;-71
2021/04/15 08:42:39;;;;;;;6.95;3.40;;;;;;;;;;5071237;28;20029;-73
2021/04/15 08:46:04;;;;;;;7.53;3.55;;;;;;;;;;5071381;28;20048;-72
2021/04/15 08:49:27;;;;;;;7.07;3.47;;;;;;;;;;5074498;28;20045;-72
2021/04/15 08:52:46;;;;;;;6.38;3.70;;;;;;;;;;5074653;28;20044;-73
2021/04/15 08:56:03;;;;;;;4.47;3.38;;;;;;;;;;5074327;28;20044;-73
2021/04/15 08:59:11;;;;;;;7.05;3.85;;;;;;;;;;5075230;28;20063;-72
2021/04/15 09:02:43;;;;;;;20.05;13.35;;;;;;;;;;5076691;28;20033;-73
2021/04/15 09:06:08;;;;;;;10.70;3.90;;;;;;;;;;5075448;28;20043;-75
2021/04/15 09:09:20;;;;;;;8.25;3.90;;;;;;;;;;5075243;28;20044;-77
2021/04/15 09:12:39;;;;;;;5.80;3.15;;;;;;;;;;5073962;28;20044;-77
2021/04/15 09:16:02;;;;;;;10.27;4.88;;;;;;;;;;5071981;28;20041;-74
2021/04/15 09:19:07;;;;;;;5.50;3.28;;;;;;;;;;5073616;28;20048;-77
2021/04/15 09:22:17;;;;;;;5.47;2.55;;;;;;;;;;5073358;28;20032;-77
2021/04/15 09:25:28;;;;;;;4.78;3.08;;;;;;;;;;5075875;28;20041;-72
2021/04/15 09:28:51;;;;;;;3.65;2.70;;;;;;;;;;5074542;28;20032;-73
2021/04/15 09:32:03;;;;;;;8.15;3.30;;;;;;;;;;5073582;28;20048;-75
2021/04/15 09:35:23;;;;;;;8.15;2.75;;;;;;;;;;5073975;28;20511;-76
2021/04/15 09:38:46;;;;;;;4.18;2.83;;;;;;;;;;5073954;28;20032;-78
2021/04/15 09:42:14;;;;;;;5.18;2.78;;;;;;;;;;5073568;28;20049;-75
2021/04/15 09:45:52;;;;;;;8.48;3.05;;;;;;;;;;5074454;28;20040;-74
2021/04/15 09:49:16;;;;;;;4.90;3.03;;;;;;;;;;5073813;28;20044;-74
2021/04/15 09:52:24;;;;;;;6.40;2.72;;;;;;;;;;5075740;28;20053;-73
2021/04/15 09:55:40;;;;;;;10.93;2.85;;;;;;;;;;5074533;28;20032;-76
2021/04/15 09:59:12;;;;;;;7.07;3.47;;;;;;;;;;5074990;28;20047;-77
2021/04/15 10:02:22;;;;;;;33.00;22.00;;;;;;;;;;5072579;28;20377;-71
2021/04/15 10:05:29;;;;;;;8.75;4.50;;;;;;;;;;5072618;28;20052;-76
2021/04/15 10:08:33;;;;;;;7.50;4.57;;;;;;;;;;5083839;28;20052;-76
2021/04/15 10:11:51;;;;;;;8.13;4.00;;;;;;;;;;5072570;28;20048;-72
2021/04/15 10:15:02;;;;;;;9.52;4.35;;;;;;;;;;5073480;28;20037;-74
2021/04/15 10:18:13;;;;;;;11.30;4.43;;;;;;;;;;5072579;28;20032;-72
2021/04/15 10:21:29;;;;;;;4.75;3.47;;;;;;;;;;5073041;28;20036;-74
2021/04/15 10:24:33;;;;;;;8.95;3.70;;;;;;;;;;5072891;28;20610;-71
2021/04/15 10:27:59;;;;;;;7.43;3.72;;;;;;;;;;5072663;28;20032;-76
2021/04/15 10:31:22;;;;;;;6.78;3.55;;;;;;;;;;5072664;28;20037;-72
2021/04/15 10:34:46;;;;;;;8.07;4.00;;;;;;;;;;5072695;28;20385;-71
2021/04/15 10:38:16;;;;;;;6.68;3.53;;;;;;;;;;5073094;28;20048;-69
2021/04/15 10:41:30;;;;;;;6.07;3.47;;;;;;;;;;5073172;28;20036;-68
2021/04/15 10:44:53;;;;;;;13.88;10.18;;;;;;;;;;5074428;28;20052;-80
2021/04/15 10:48:20;;;;;;;10.57;4.00;;;;;;;;;;5073539;28;20392;-80
2021/04/15 10:51:33;;;;;;;7.18;4.47;;;;;;;;;;5072572;28;20043;-76
2021/04/15 10:54:39;;;;;;;10.50;3.90;;;;;;;;;;5074043;28;20049;-77
2021/04/15 10:57:44;;;;;;;5.18;3.03;;;;;;;;;;5073185;28;20040;-77
2021/04/15 11:00:48;;;;;;;6.55;3.40;;;;;;;;;;5072806;28;20049;-78
2021/04/15 11:04:12;;;;;;;4.68;3.25;;;;;;;;;;5072841;28;20044;-77
2021/04/15 11:07:19;;;;;;;5.57;3.40;;;;;;;;;;5072319;28;20049;-77
2021/04/15 11:10:29;;;;;;;6.00;3.20;;;;;;;;;;5072093;28;20040;-77
2021/04/15 11:13:34;;;;;;;8.48;5.97;;;;;;;;;;5083049;28;20049;-73
2021/04/15 11:16:38;;;;;;;8.88;4.40;;;;;;;;;;5071475;28;20036;-74
2021/04/15 11:19:43;;;;;;;9.90;3.33;;;;;;;;;;5072367;28;20052;-74
2021/04/15 11:22:56;;;;;;;13.38;3.85;;;;;;;;;;5072104;28;20049;-74
2021/04/15 11:26:18;;;;;;;4.65;2.95;;;;;;;;;;5072060;28;20059;-75
2021/04/15 11:29:28;;;;;;;8.70;3.42;;;;;;;;;;5071662;28;20040;-75
2021/04/15 11:32:43;;;;;;;6.13;3.20;;;;;;;;;;5071606;28;20376;-76
2021/04/15 11:36:02;;;;;;;6.82;3.40;;;;;;;;;;5071941;28;20480;-75
2021/04/15 11:39:07;;;;;;;39.83;26.83;;;;;;;;;;5072662;28;20036;-75
2021/04/15 11:42:12;;;;;;;15.50;5.38;;;;;;;;;;5072044;28;20047;-75
2021/04/15 11:45:28;;;;;;;8.77;3.67;;;;;;;;;;5071733;28;20035;-76
2021/04/15 11:48:33;;;;;;;28.60;20.65;;;;;;;;;;5072480;28;20044;-73
2021/04/15 11:51:57;;;;;;;8.70;4.15;;;;;;;;;;5071175;28;20051;-74
2021/04/15 11:55:04;;;;;;;6.10;3.70;;;;;;;;;;5071276;28;20032;-73
2021/04/15 11:58:28;;;;;;;5.75;3.42;;;;;;;;;;5070714;28;20036;-74
2021/04/15 12:01:32;;;;;;;6.20;3.40;;;;;;;;;;5071358;28;20476;-77
2021/04/15 12:04:36;;;;;;;7.78;3.28;;;;;;;;;;5071764;28;20041;-75
2021/04/15 12:07:43;;;;;;;10.45;4.05;;;;;;;;;;5071259;28;20049;-77
2021/04/15 12:10:58;;;;;;;11.65;3.63;;;;;;;;;;5071764;28;20040;-76
2021/04/15 12:14:03;;;;;;;6.28;3.22;;;;;;;;;;5071367;28;20044;-76
2021/04/15 12:17:11;;;;;;;7.22;3.28;;;;;;;;;;5071637;28;20032;-74
2021/04/15 12:20:36;;;;;;;5.93;3.17;;;;;;;;;;5071636;28;20044;-77
2021/04/15 12:23:51;;;;;;;15.27;7.70;;;;;;;;;;5070878;28;20369;-78
2021/04/15 12:27:01;;;;;;;7.10;4.35;;;;;;;;;;5071181;28;20047;-76
2021/04/15 12:30:08;;;;;;;7.63;3.95;;;;;;;;;;5072353;28;20032;-79
2021/04/15 12:33:25;;;;;;;8.93;4.18;;;;;;;;;;5071492;28;20401;-80
2021/04/15 12:36:31;;;;;;;10.63;4.43;;;;;;;;;;5071479;28;20492;-77
2021/04/15 12:40:11;;;;;;;11.90;5.45;;;;;;;;;;5070805;28;20036;-78
2021/04/15 12:43:34;;;;;;;6.63;4.30;;;;;;;;;;5052943;28;20032;-79
2021/04/15 12:46:39;;;;;;;7.35;4.25;;;;;;;;;;5072058;28;20048;-79
2021/04/15 12:49:46;;;;;;;13.20;5.78;;;;;;;;;;5082124;28;20036;-75
2021/04/15 12:52:51;;;;;;;9.27;3.35;;;;;;;;;;5070365;28;20052;-77
2021/04/15 12:55:57;;;;;;;12.80;4.05;;;;;;;;;;5072279;28;20037;-81
2021/04/15 12:59:02;;;;;;;11.85;4.22;;;;;;;;;;5071666;28;20048;-75
2021/04/15 13:02:12;;;;;;;8.45;3.85;;;;;;;;;;5072537;28;20032;-76
2021/04/15 13:05:26;;;;;;;16.30;3.90;;;;;;;;;;5071207;28;20365;-73
2021/04/15 13:08:34;;;;;;;9.27;3.85;;;;;;;;;;5069864;28;20065;-76
2021/04/15 13:11:39;;;;;;;8.18;4.15;;;;;;;;;;5070589;28;20365;-76
2021/04/15 13:14:44;;;;;;;12.15;4.20;;;;;;;;;;5070876;28;20037;-76
2021/04/15 13:17:48;;;;;;;7.72;4.22;;;;;;;;;;5070456;28;20033;-77
2021/04/15 13:21:03;;;;;;;8.02;3.78;;;;;;;;;;5070717;28;20033;-80
2021/04/15 13:24:26;;;;;;;6.90;3.40;;;;;;;;;;5070835;28;20040;-77
2021/04/15 13:27:37;;;;;;;13.40;5.05;;;;;;;;;;5070619;28;20076;-82
2021/04/15 13:30:41;;;;;;;10.97;4.07;;;;;;;;;;5071419;28;20051;-72
2021/04/15 13:34:01;;;;;;;9.32;3.40;;;;;;;;;;5071123;28;20040;-75
2021/04/15 13:37:24;;;;;;;10.07;3.22;;;;;;;;;;5074204;28;20036;-76
2021/04/15 13:40:55;;;;;;;7.90;3.20;;;;;;;;;;5074085;28;20404;-71
2021/04/15 13:44:05;;;;;;;8.52;3.47;;;;;;;;;;5063449;28;20036;-80
2021/04/15 13:47:28;;;;;;;5.80;3.33;;;;;;;;;;5074750;28;20036;-77
2021/04/15 13:50:52;;;;;;;6.82;2.80;;;;;;;;;;5075100;28;20165;-74
2021/04/15 13:54:08;;;;;;;30.00;20.70;;;;;;;;;;5073759;28;20044;-77
2021/04/15 13:57:15;;;;;;;6.40;3.90;;;;;;;;;;5073761;28;20044;-77
2021/04/15 14:00:40;;;;;;;13.00;4.32;;;;;;;;;;5076871;28;20362;-83
2021/04/15 14:03:46;;;;;;;7.82;3.30;;;;;;;;;;5078555;28;20053;-80
2021/04/15 14:06:50;;;;;;;9.02;2.90;;;;;;;;;;5075299;28;20036;-77
2021/04/15 14:09:55;;;;;;;11.15;2.80;;;;;;;;;;5073811;28;20042;-76
2021/04/15 14:13:09;;;;;;;7.10;3.22;;;;;;;;;;5073504;28;20048;-78
2021/04/15 14:16:14;;;;;;;14.65;3.20;;;;;;;;;;5072948;28;20044;-78
2021/04/15 14:19:26;;;;;;;8.32;3.17;;;;;;;;;;5073613;28;20469;-75
2021/04/15 14:22:33;;;;;;;6.55;3.30;;;;;;;;;;5072251;28;20036;-72
2021/04/15 14:25:40;;;;;;;7.47;3.10;;;;;;;;;;5072937;28;20473;-77
2021/04/15 14:28:44;;;;;;;5.78;2.75;;;;;;;;;;5073151;28;20052;-74
2021/04/15 14:31:52;;;;;;;9.82;2.35;;;;;;;;;;5073320;28;20469;-74
2021/04/15 14:35:00;;;;;;;6.47;2.83;;;;;;;;;;5073280;28;20044;-74
2021/04/15 14:38:05;;;;;;;7.90;3.28;;;;;;;;;;5072550;28;20036;-77
2021/04/15 14:41:09;;;;;;;11.55;3.05;;;;;;;;;;5074450;28;20045;-77
2021/04/15 14:44:19;;;;;;;9.80;3.22;;;;;;;;;;5073317;28;20044;-78
2021/04/15 14:47:33;;;;;;;5.35;2.67;;;;;;;;;;5085302;28;20037;-79
2021/04/15 14:50:39;;;;;;;4.55;2.70;;;;;;;;;;5074574;28;20028;-78
2021/04/15 14:53:45;;;;;;;11.18;2.88;;;;;;;;;;5072354;28;20048;-80
2021/04/15 14:56:51;;;;;;;8.63;2.47;;;;;;;;;;5072687;28;20037;-76
2021/04/15 15:00:00;;;;;;;6.30;2.85;;;;;;;;;;5073176;28;20381;-76
2021/04/15 15:03:06;;;;;;;16.67;3.55;;;;;;;;;;5072700;28;20036;-77
2021/04/15 15:06:11;;;;;;;12.48;2.65;;;;;;;;;;5073242;28;20036;-81
2021/04/15 15:09:17;;;;;;;9.48;2.85;;;;;;;;;;5075829;28;20052;-79
2021/04/15 15:12:28;;;;;;;10.70;3.30;;;;;;;;;;5075447;28;20040;-76
2021/04/15 15:15:38;;;;;;;9.32;3.28;;;;;;;;;;5073960;28;20040;-77
2021/04/15 15:18:45;;;;;;;8.90;3.03;;;;;;;;;;5073440;28;20033;-76
2021/04/15 15:21:51;;;;;;;7.15;2.67;;;;;;;;;;5072904;28;20041;-76
2021/04/15 15:24:57;;;;;;;18.10;3.28;;;;;;;;;;5073680;28;20025;-79
2021/04/15 15:28:01;;;;;;;5.25;3.00;;;;;;;;;;5072085;28;20028;-76
2021/04/15 15:31:16;;;;;;;14.20;3.65;;;;;;;;;;5071730;28;20037;-70
2021/04/15 15:34:26;;;;;;;12.50;3.03;;;;;;;;;;5071416;28;20053;-74
2021/04/15 15:37:36;;;;;;;16.80;3.35;;;;;;;;;;5072193;28;20043;-75
2021/04/15 15:40:44;;;;;;;26.88;9.23;;;;;;;;;;5070952;28;20507;-75
2021/04/15 15:43:57;;;;;;;12.52;3.33;;;;;;;;;;5071252;28;20147;-78
2021/04/15 15:47:04;;;;;;;13.05;3.35;;;;;;;;;;5082236;28;20037;-78
2021/04/15 15:50:17;;;;;;;9.68;4.20;;;;;;;;;;5071427;28;20025;-76
2021/04/15 15:53:44;;;;;;;10.30;3.17;;;;;;;;;;5072219;28;20052;-77
2021/04/15 15:56:49;;;;;;;8.50;3.08;;;;;;;;;;5072286;28;20036;-76
2021/04/15 16:29:13;;;;;;;9.85;2.85;;;18.10;47.40;;;;;;5108555;27;20348;-71
2021/04/15 16:32:19;;;;;;;8.80;2.72;;;18.00;47.60;;;;;;5108581;28;20028;-70
2021/04/15 16:35:23;;;;;;;11.50;3.13;;;18.00;47.70;;;;;;5108268;28;20039;-69
2021/04/15 16:38:40;;;;;;;10.88;3.42;;;17.90;47.90;;;;;;5109208;28;20493;-67
2021/04/15 16:41:46;;;;;;;11.48;3.80;;;17.90;48.40;;;;;;5107751;28;20043;-69
2021/04/15 16:44:57;;;;;;;;;;;17.80;48.60;;;;;;5109074;28;20042;-70
2021/04/15 16:48:02;;;;;;;9.18;2.75;;;17.80;49.20;;;;;;5108136;28;19914;-67
2021/04/15 16:51:09;;;;;;;9.50;3.10;;;17.80;49.50;;;;;;5108433;28;20031;-70
2021/04/15 16:54:13;;;;;;;9.18;2.53;;;17.70;49.40;;;;;;5107384;28;20490;-69
2021/04/15 16:57:17;;;;;;;7.28;2.78;;;17.70;49.50;;;;;;5107970;28;20048;-71
2021/04/15 17:00:34;;;;;;;9.35;5.28;;;17.70;49.90;;;;;;5108341;28;20040;-70
2021/04/15 17:03:38;;;;;;;9.90;5.07;;;17.60;49.70;;;;;;5108201;28;20372;-70
2021/04/15 17:06:42;;;;;;;10.57;4.85;;;17.50;49.70;;;;;;5107817;28;20609;-73
2021/04/15 17:09:48;;;;;;;10.02;3.92;;;17.50;49.90;;;;;;5107768;28;20106;-67
2021/04/15 17:12:52;;;;;;;9.13;3.30;;;17.40;49.80;;;;;;5106934;28;20046;-68
2021/04/15 17:15:57;;;;;;;26.00;17.33;;;17.30;49.90;;;;;;5107813;28;20028;-71
2021/04/15 17:19:02;;;;;;;12.95;5.75;;;17.30;50.80;;;;;;5086256;28;20557;-67
2021/04/15 17:33:04;;;;;;;23.20;9.38;;;17.40;49.20;;;;;;5044625;28;20415;-68
2021/04/15 17:36:08;;;;;;;11.95;4.68;;;17.30;49.90;;;;;;5044685;28;20033;-68
2021/04/15 17:39:14;;;;;;;8.93;3.72;;;17.10;50.30;;;;;;5044687;28;20041;-69
2021/04/15 17:42:18;;;;;;;11.80;5.85;;;17.00;50.70;;;;;;5044008;28;20045;-73
2021/04/15 17:45:24;;;;;;;26.13;14.95;;;17.00;50.80;;;;;;5044590;28;20041;-69
2021/04/15 17:48:28;;;;;;;14.10;5.10;;;17.10;53.40;;;;;;5043932;28;20364;-72
2021/04/15 17:51:33;;;;;;;6.88;3.83;;;17.10;50.00;;;;;;5044441;28;20048;-71
2021/04/15 17:54:38;;;;;;;15.43;4.28;;;17.10;50.30;;;;;;5044551;28;20045;-71
2021/04/15 17:57:42;;;;;;;10.43;3.42;;;17.00;50.40;;;;;;5044558;28;20044;-71
2021/04/15 18:00:47;;;;;;;8.32;4.60;;;16.90;50.00;;;;;;5044237;28;20048;-72
2021/04/15 18:03:51;;;;;;;15.98;4.22;;;16.80;50.10;;;;;;5043987;28;20487;-71
2021/04/15 18:06:57;;;;;;;13.07;8.18;;;16.80;50.30;;;;;;5043943;28;20423;-72
2021/04/15 18:10:01;;;;;;;14.18;5.93;;;16.70;50.30;;;;;;5044411;28;20048;-72
2021/04/15 18:13:07;;;;;;;14.75;4.38;;;16.60;52.00;;;;;;5044116;28;20193;-72
2021/04/15 18:16:11;;;;;;;9.52;4.60;;;16.60;53.60;;;;;;5044399;28;20052;-72
2021/04/15 18:19:15;;;;;;;13.50;6.07;;;16.50;53.80;;;;;;5044163;28;20041;-72
2021/04/15 18:22:19;;;;;;;13.40;8.35;;;16.50;54.50;;;;;;5043650;28;20408;-72
2021/04/15 18:25:26;;;;;;;14.77;7.70;;;16.40;54.30;;;;;;5043764;28;20052;-72
2021/04/15 18:28:31;;;;;;;16.65;5.47;;;16.30;55.00;;;;;;5043325;28;20040;-71
2021/04/15 18:31:35;;;;;;;10.38;5.55;;;16.10;53.70;;;;;;5042093;28;20060;-71
2021/04/15 18:34:47;;;;;;;12.30;7.50;;;16.00;53.90;;;;;;5029989;28;20048;-73
2021/04/15 18:37:53;;;;;;;12.75;7.38;;;15.90;54.20;;;;;;5030127;28;20037;-72
2021/04/15 18:41:02;;;;;;;12.68;6.38;;;15.90;54.10;;;;;;5030020;28;20053;-71
2021/04/15 18:44:10;;;;;;;9.60;5.68;;;16.00;54.50;;;;;;5030069;28;20503;-72
2021/04/15 18:47:14;;;;;;;9.48;6.07;;;16.00;54.10;;;;;;5028753;28;20279;-71
2021/04/15 18:50:25;;;;;;;12.13;5.95;;;16.00;54.60;;;;;;5029094;28;20041;-72
2021/04/15 18:53:29;;;;;;;13.90;6.20;;;15.90;54.70;;;;;;5030160;28;20045;-72
2021/04/15 18:56:34;;;;;;;10.98;5.50;;;15.80;54.70;;;;;;5029972;28;20063;-71
2021/04/15 18:59:38;;;;;;;8.85;6.30;;;15.60;54.50;;;;;;5030004;28;20040;-71
2021/04/15 19:02:42;;;;;;;10.15;5.75;;;15.50;54.90;;;;;;5029828;28;20053;-71
2021/04/15 19:05:47;;;;;;;12.02;5.30;;;15.50;55.00;;;;;;5030318;28;20394;-71
2021/04/15 19:08:53;;;;;;;9.13;5.30;;;15.30;55.40;;;;;;5030338;28;20056;-71
2021/04/15 19:11:57;;;;;;;11.65;5.80;;;15.10;55.50;;;;;;5030012;28;20030;-72
2021/04/15 19:15:01;;;;;;;11.13;5.20;;;15.00;56.80;;;;;;5029948;28;20052;-72